BTK6330 WATO-WADD
Flight info
| Callsign | BTK6330 |
|---|---|
| Flight time | 0h 58m |
| Altitude | 34000 |
| Route | TOGEM W42 PEBGU |
| Aircraft | A320/M-SDE3FGHIRWY/LB1 |
Departure
| Time | 2026-05-05 10:27 |
|---|---|
| Airport | Komodo Airport (WATO) |
Arrival
| Time | 2026-05-05 11:25 |
|---|---|
| Airport | Denpasar I Gusti Ngurah Rai International Airport (WADD) |
| Time | Latitude | Longitude | Altitude | Speed | Heading |
|---|---|---|---|---|---|
| 2026-05-05 10:15 | -8.48910 | 119.88802 | 234 ft | 0 kts | 263° |
| 2026-05-05 10:20 | -8.48909 | 119.88812 | 232 ft | 4 kts | 258° |
| 2026-05-05 10:20 | -8.48901 | 119.88836 | 234 ft | 4 kts | 230° |
| 2026-05-05 10:20 | -8.48882 | 119.88848 | 234 ft | 2 kts | 174° |
| 2026-05-05 10:21 | -8.48880 | 119.88848 | 234 ft | 0 kts | 173° |
| 2026-05-05 10:24 | -8.48896 | 119.88850 | 234 ft | 6 kts | 173° |
| 2026-05-05 10:24 | -8.48966 | 119.88859 | 234 ft | 12 kts | 172° |
| 2026-05-05 10:24 | -8.49056 | 119.88871 | 233 ft | 14 kts | 172° |
| 2026-05-05 10:24 | -8.49162 | 119.88886 | 234 ft | 17 kts | 173° |
| 2026-05-05 10:25 | -8.49245 | 119.88921 | 233 ft | 10 kts | 105° |
| 2026-05-05 10:25 | -8.49237 | 119.88973 | 238 ft | 9 kts | 79° |
| 2026-05-05 10:25 | -8.49186 | 119.89000 | 232 ft | 10 kts | 350° |
| 2026-05-05 10:25 | -8.49165 | 119.88997 | 233 ft | 0 kts | 353° |
| 2026-05-05 10:26 | -8.49108 | 119.88990 | 235 ft | 34 kts | 352° |
| 2026-05-05 10:26 | -8.48628 | 119.88927 | 239 ft | 102 kts | 353° |
| 2026-05-05 10:26 | -8.47743 | 119.88812 | 240 ft | 152 kts | 353° |
| 2026-05-05 10:27 | -8.46637 | 119.88685 | 639 ft | 162 kts | 352° |
| 2026-05-05 10:27 | -8.45510 | 119.88658 | 1238 ft | 163 kts | 5° |
| 2026-05-05 10:27 | -8.44364 | 119.88753 | 1667 ft | 173 kts | 1° |
| 2026-05-05 10:27 | -8.43150 | 119.88416 | 1875 ft | 195 kts | 325° |
| 2026-05-05 10:28 | -8.42273 | 119.87293 | 2076 ft | 218 kts | 292° |
| 2026-05-05 10:28 | -8.42025 | 119.85737 | 2363 ft | 238 kts | 262° |
| 2026-05-05 10:28 | -8.42577 | 119.84111 | 2719 ft | 260 kts | 245° |
| 2026-05-05 10:28 | -8.43233 | 119.82376 | 3446 ft | 268 kts | 251° |
| 2026-05-05 10:29 | -8.43792 | 119.80558 | 4280 ft | 273 kts | 253° |
| 2026-05-05 10:29 | -8.44327 | 119.78698 | 5092 ft | 279 kts | 253° |
| 2026-05-05 10:29 | -8.44873 | 119.76801 | 5880 ft | 284 kts | 253° |
| 2026-05-05 10:29 | -8.45439 | 119.74874 | 6647 ft | 289 kts | 253° |
| 2026-05-05 10:30 | -8.46029 | 119.72923 | 7412 ft | 292 kts | 252° |
| 2026-05-05 10:30 | -8.46639 | 119.70956 | 8185 ft | 295 kts | 252° |
| 2026-05-05 10:30 | -8.47263 | 119.68970 | 8954 ft | 298 kts | 252° |
| 2026-05-05 10:30 | -8.47896 | 119.66967 | 9729 ft | 301 kts | 252° |
| 2026-05-05 10:31 | -8.48508 | 119.65031 | 10236 ft | 311 kts | 252° |
| 2026-05-05 10:31 | -8.49191 | 119.62873 | 10399 ft | 334 kts | 252° |
| 2026-05-05 10:31 | -8.49909 | 119.60597 | 10808 ft | 344 kts | 252° |
| 2026-05-05 10:31 | -8.50640 | 119.58278 | 11390 ft | 348 kts | 251° |
| 2026-05-05 10:32 | -8.51378 | 119.55937 | 12016 ft | 352 kts | 251° |
| 2026-05-05 10:32 | -8.52123 | 119.53573 | 12655 ft | 354 kts | 251° |
| 2026-05-05 10:32 | -8.52872 | 119.51193 | 13278 ft | 357 kts | 251° |
| 2026-05-05 10:32 | -8.53629 | 119.48794 | 13872 ft | 360 kts | 251° |
| 2026-05-05 10:33 | -8.54391 | 119.46380 | 14413 ft | 362 kts | 251° |
| 2026-05-05 10:33 | -8.55158 | 119.43942 | 14930 ft | 365 kts | 251° |
| 2026-05-05 10:33 | -8.55931 | 119.41489 | 15476 ft | 368 kts | 251° |
| 2026-05-05 10:33 | -8.56512 | 119.38965 | 16018 ft | 372 kts | 262° |
| 2026-05-05 10:34 | -8.56593 | 119.36346 | 16535 ft | 375 kts | 272° |
| 2026-05-05 10:34 | -8.56463 | 119.33705 | 17069 ft | 378 kts | 272° |
| 2026-05-05 10:34 | -8.56333 | 119.31048 | 17598 ft | 380 kts | 272° |
| 2026-05-05 10:34 | -8.56203 | 119.28371 | 18124 ft | 383 kts | 272° |
| 2026-05-05 10:35 | -8.56073 | 119.25675 | 18575 ft | 386 kts | 272° |
| 2026-05-05 10:35 | -8.55943 | 119.22960 | 19014 ft | 389 kts | 272° |
| 2026-05-05 10:35 | -8.55816 | 119.20223 | 19451 ft | 392 kts | 272° |
| 2026-05-05 10:35 | -8.55690 | 119.17464 | 19895 ft | 395 kts | 272° |
| 2026-05-05 10:36 | -8.55562 | 119.14683 | 20343 ft | 398 kts | 272° |
| 2026-05-05 10:36 | -8.55433 | 119.11881 | 20782 ft | 401 kts | 272° |
| 2026-05-05 10:36 | -8.55303 | 119.09059 | 21208 ft | 404 kts | 272° |
| 2026-05-05 10:36 | -8.55170 | 119.06212 | 21664 ft | 407 kts | 272° |
| 2026-05-05 10:37 | -8.55037 | 119.03346 | 22090 ft | 410 kts | 272° |
| 2026-05-05 10:37 | -8.54901 | 119.00454 | 22526 ft | 413 kts | 272° |
| 2026-05-05 10:37 | -8.54763 | 118.97545 | 22946 ft | 416 kts | 272° |
| 2026-05-05 10:37 | -8.54624 | 118.94613 | 23354 ft | 420 kts | 272° |
| 2026-05-05 10:38 | -8.54486 | 118.91657 | 23704 ft | 422 kts | 272° |
| 2026-05-05 10:38 | -8.54345 | 118.88684 | 24051 ft | 425 kts | 272° |
| 2026-05-05 10:38 | -8.54202 | 118.85699 | 24400 ft | 426 kts | 272° |
| 2026-05-05 10:38 | -8.54058 | 118.82701 | 24749 ft | 428 kts | 272° |
| 2026-05-05 10:39 | -8.53914 | 118.79693 | 25087 ft | 430 kts | 272° |
| 2026-05-05 10:39 | -8.53770 | 118.76669 | 25429 ft | 432 kts | 272° |
| 2026-05-05 10:39 | -8.53623 | 118.73633 | 25763 ft | 433 kts | 272° |
| 2026-05-05 10:39 | -8.53476 | 118.70630 | 26095 ft | 435 kts | 272° |
| 2026-05-05 10:40 | -8.53330 | 118.67568 | 26424 ft | 437 kts | 272° |
| 2026-05-05 10:40 | -8.53193 | 118.64497 | 26749 ft | 438 kts | 272° |
| 2026-05-05 10:40 | -8.53060 | 118.61419 | 27064 ft | 440 kts | 272° |
| 2026-05-05 10:40 | -8.52926 | 118.58330 | 27379 ft | 441 kts | 272° |
| 2026-05-05 10:41 | -8.52789 | 118.55227 | 27691 ft | 443 kts | 272° |
| 2026-05-05 10:41 | -8.52650 | 118.52117 | 28000 ft | 444 kts | 272° |
| 2026-05-05 10:41 | -8.52507 | 118.48952 | 28316 ft | 446 kts | 272° |
| 2026-05-05 10:41 | -8.52365 | 118.45862 | 28635 ft | 447 kts | 272° |
| 2026-05-05 10:42 | -8.52076 | 118.39561 | 29259 ft | 450 kts | 272° |
| 2026-05-05 10:42 | -8.51929 | 118.36397 | 29571 ft | 452 kts | 272° |
| 2026-05-05 10:42 | -8.51829 | 118.34252 | 29777 ft | 453 kts | 272° |
| 2026-05-05 10:43 | -8.51681 | 118.31071 | 29898 ft | 450 kts | 272° |
| 2026-05-05 10:43 | -8.51349 | 118.23839 | 29916 ft | 440 kts | 272° |
| 2026-05-05 10:44 | -8.51107 | 118.18673 | 29918 ft | 439 kts | 272° |
| 2026-05-05 10:44 | -8.50822 | 118.12550 | 29914 ft | 439 kts | 272° |
| 2026-05-05 10:45 | -8.50540 | 118.06393 | 29910 ft | 439 kts | 272° |
| 2026-05-05 10:45 | -8.50256 | 118.00230 | 29912 ft | 439 kts | 272° |
| 2026-05-05 10:46 | -8.49962 | 117.94072 | 29913 ft | 439 kts | 272° |
| 2026-05-05 10:46 | -8.49674 | 117.87915 | 29909 ft | 439 kts | 272° |
| 2026-05-05 10:47 | -8.49385 | 117.81755 | 29911 ft | 439 kts | 272° |
| 2026-05-05 10:47 | -8.49089 | 117.75595 | 29907 ft | 440 kts | 272° |
| 2026-05-05 10:48 | -8.48798 | 117.69422 | 29907 ft | 440 kts | 272° |
| 2026-05-05 10:48 | -8.48509 | 117.63251 | 29902 ft | 440 kts | 272° |
| 2026-05-05 10:49 | -8.48214 | 117.57078 | 29907 ft | 440 kts | 272° |
| 2026-05-05 10:49 | -8.47914 | 117.50893 | 29906 ft | 440 kts | 272° |
| 2026-05-05 10:50 | -8.47616 | 117.44855 | 29901 ft | 415 kts | 272° |
| 2026-05-05 10:50 | -8.47675 | 117.39134 | 29706 ft | 410 kts | 259° |
| 2026-05-05 10:50 | -8.48399 | 117.36320 | 28367 ft | 419 kts | 252° |
| 2026-05-05 10:51 | -8.49275 | 117.33482 | 27178 ft | 423 kts | 252° |
| 2026-05-05 10:51 | -8.50126 | 117.30663 | 26914 ft | 415 kts | 253° |
| 2026-05-05 10:51 | -8.50940 | 117.27876 | 26437 ft | 413 kts | 253° |
| 2026-05-05 10:51 | -8.51725 | 117.25077 | 25912 ft | 414 kts | 254° |
| 2026-05-05 10:52 | -8.52491 | 117.22273 | 25390 ft | 415 kts | 254° |
| 2026-05-05 10:52 | -8.53256 | 117.19463 | 24878 ft | 415 kts | 254° |
| 2026-05-05 10:52 | -8.54026 | 117.16649 | 24381 ft | 416 kts | 254° |
| 2026-05-05 10:52 | -8.54800 | 117.13833 | 23894 ft | 416 kts | 254° |
| 2026-05-05 10:53 | -8.55574 | 117.11017 | 23407 ft | 416 kts | 254° |
| 2026-05-05 10:53 | -8.56350 | 117.08203 | 22885 ft | 415 kts | 254° |
| 2026-05-05 10:53 | -8.57099 | 117.05458 | 22686 ft | 408 kts | 254° |
| 2026-05-05 10:53 | -8.57839 | 117.02689 | 22595 ft | 408 kts | 254° |
| 2026-05-05 10:54 | -8.58570 | 116.99924 | 22504 ft | 407 kts | 255° |
| 2026-05-05 10:54 | -8.59294 | 116.97160 | 22410 ft | 407 kts | 255° |
| 2026-05-05 10:54 | -8.60019 | 116.94403 | 22321 ft | 406 kts | 255° |
| 2026-05-05 10:54 | -8.60747 | 116.91648 | 22227 ft | 405 kts | 255° |
| 2026-05-05 10:55 | -8.61476 | 116.88903 | 22145 ft | 404 kts | 254° |
| 2026-05-05 10:55 | -8.62207 | 116.86160 | 22045 ft | 404 kts | 255° |
| 2026-05-05 10:55 | -8.62934 | 116.83424 | 21939 ft | 403 kts | 254° |
| 2026-05-05 10:55 | -8.63662 | 116.80694 | 21832 ft | 402 kts | 254° |
| 2026-05-05 10:56 | -8.64388 | 116.77969 | 21725 ft | 401 kts | 255° |
| 2026-05-05 10:56 | -8.65110 | 116.75247 | 21615 ft | 400 kts | 255° |
| 2026-05-05 10:56 | -8.65828 | 116.72532 | 21510 ft | 400 kts | 255° |
| 2026-05-05 10:56 | -8.66544 | 116.69822 | 21408 ft | 399 kts | 255° |
| 2026-05-05 10:57 | -8.67261 | 116.67115 | 21300 ft | 398 kts | 255° |
| 2026-05-05 10:57 | -8.67976 | 116.64418 | 21197 ft | 397 kts | 255° |
| 2026-05-05 10:57 | -8.68690 | 116.61723 | 21091 ft | 396 kts | 255° |
| 2026-05-05 10:57 | -8.69402 | 116.59034 | 20987 ft | 396 kts | 255° |
| 2026-05-05 10:58 | -8.70110 | 116.56353 | 20873 ft | 395 kts | 255° |
| 2026-05-05 10:58 | -8.70819 | 116.53673 | 20779 ft | 394 kts | 255° |
| 2026-05-05 10:58 | -8.71526 | 116.51001 | 20672 ft | 393 kts | 255° |
| 2026-05-05 10:58 | -8.72234 | 116.48334 | 20567 ft | 392 kts | 255° |
| 2026-05-05 10:59 | -8.72934 | 116.45680 | 20463 ft | 392 kts | 255° |
| 2026-05-05 10:59 | -8.73635 | 116.43017 | 20361 ft | 391 kts | 255° |
| 2026-05-05 10:59 | -8.74333 | 116.40364 | 20255 ft | 390 kts | 255° |
| 2026-05-05 10:59 | -8.75033 | 116.37716 | 20155 ft | 389 kts | 255° |
| 2026-05-05 11:00 | -8.75731 | 116.35075 | 20050 ft | 389 kts | 255° |
| 2026-05-05 11:00 | -8.76427 | 116.32438 | 19946 ft | 388 kts | 255° |
| 2026-05-05 11:00 | -8.77124 | 116.29807 | 19844 ft | 387 kts | 253° |
| 2026-05-05 11:00 | -8.78017 | 116.27244 | 19735 ft | 386 kts | 249° |
| 2026-05-05 11:01 | -8.78954 | 116.24702 | 19636 ft | 386 kts | 249° |
| 2026-05-05 11:01 | -8.79889 | 116.22164 | 19533 ft | 385 kts | 249° |
| 2026-05-05 11:01 | -8.80821 | 116.19631 | 19438 ft | 384 kts | 249° |
| 2026-05-05 11:01 | -8.81752 | 116.17105 | 19328 ft | 383 kts | 249° |
| 2026-05-05 11:02 | -8.82682 | 116.14582 | 19228 ft | 383 kts | 249° |
| 2026-05-05 11:02 | -8.83610 | 116.12065 | 19128 ft | 382 kts | 249° |
| 2026-05-05 11:02 | -8.84536 | 116.09550 | 19020 ft | 381 kts | 249° |
| 2026-05-05 11:02 | -8.85459 | 116.07039 | 18921 ft | 380 kts | 249° |
| 2026-05-05 11:03 | -8.86379 | 116.04538 | 18820 ft | 380 kts | 249° |
| 2026-05-05 11:03 | -8.87286 | 116.02070 | 18725 ft | 379 kts | 249° |
| 2026-05-05 11:03 | -8.88202 | 115.99575 | 18611 ft | 378 kts | 249° |
| 2026-05-05 11:03 | -8.89116 | 115.97082 | 18518 ft | 378 kts | 249° |
| 2026-05-05 11:04 | -8.90028 | 115.94593 | 18415 ft | 377 kts | 249° |
| 2026-05-05 11:04 | -8.90939 | 115.92109 | 18307 ft | 376 kts | 249° |
| 2026-05-05 11:04 | -8.91847 | 115.89630 | 18218 ft | 376 kts | 249° |
| 2026-05-05 11:04 | -8.92754 | 115.87155 | 18118 ft | 375 kts | 249° |
| 2026-05-05 11:05 | -8.93662 | 115.84683 | 18003 ft | 375 kts | 249° |
| 2026-05-05 11:05 | -8.94409 | 115.82164 | 17904 ft | 374 kts | 259° |
| 2026-05-05 11:05 | -8.94679 | 115.79551 | 17611 ft | 373 kts | 267° |
| 2026-05-05 11:05 | -8.94793 | 115.76934 | 17346 ft | 372 kts | 267° |
| 2026-05-05 11:06 | -8.94913 | 115.74325 | 17074 ft | 371 kts | 266° |
| 2026-05-05 11:06 | -8.95037 | 115.71725 | 16800 ft | 370 kts | 266° |
| 2026-05-05 11:06 | -8.95163 | 115.69133 | 16536 ft | 369 kts | 266° |
| 2026-05-05 11:06 | -8.95286 | 115.66549 | 16251 ft | 367 kts | 266° |
| 2026-05-05 11:07 | -8.95406 | 115.63972 | 16000 ft | 366 kts | 266° |
| 2026-05-05 11:07 | -8.95525 | 115.61400 | 15732 ft | 365 kts | 266° |
| 2026-05-05 11:07 | -8.95643 | 115.58838 | 15465 ft | 364 kts | 266° |
| 2026-05-05 11:07 | -8.95762 | 115.56283 | 15200 ft | 363 kts | 266° |
| 2026-05-05 11:08 | -8.95882 | 115.53737 | 14935 ft | 362 kts | 265° |
| 2026-05-05 11:08 | -8.96002 | 115.51197 | 14669 ft | 361 kts | 266° |
| 2026-05-05 11:08 | -8.96120 | 115.48666 | 14409 ft | 360 kts | 265° |
| 2026-05-05 11:08 | -8.96235 | 115.46142 | 14146 ft | 359 kts | 266° |
| 2026-05-05 11:09 | -8.96351 | 115.43625 | 13885 ft | 358 kts | 265° |
| 2026-05-05 11:09 | -8.96469 | 115.41115 | 13610 ft | 357 kts | 266° |
| 2026-05-05 11:09 | -8.96587 | 115.38613 | 13337 ft | 356 kts | 265° |
| 2026-05-05 11:09 | -8.96705 | 115.36116 | 13081 ft | 355 kts | 266° |
| 2026-05-05 11:10 | -8.96821 | 115.33627 | 12820 ft | 354 kts | 265° |
| 2026-05-05 11:10 | -8.96937 | 115.31143 | 12642 ft | 353 kts | 265° |
| 2026-05-05 11:10 | -8.97053 | 115.28662 | 12413 ft | 353 kts | 266° |
| 2026-05-05 11:10 | -8.97167 | 115.26188 | 12156 ft | 352 kts | 266° |
| 2026-05-05 11:11 | -8.97290 | 115.23722 | 11876 ft | 351 kts | 265° |
| 2026-05-05 11:11 | -8.97462 | 115.21268 | 11505 ft | 349 kts | 264° |
| 2026-05-05 11:11 | -8.97667 | 115.18829 | 11152 ft | 347 kts | 263° |
| 2026-05-05 11:11 | -8.97884 | 115.16402 | 10813 ft | 346 kts | 263° |
| 2026-05-05 11:12 | -8.98104 | 115.13985 | 10469 ft | 344 kts | 263° |
| 2026-05-05 11:12 | -8.98314 | 115.11604 | 10302 ft | 334 kts | 264° |
| 2026-05-05 11:12 | -8.98510 | 115.09305 | 10185 ft | 322 kts | 264° |
| 2026-05-05 11:12 | -8.98694 | 115.07080 | 10016 ft | 314 kts | 264° |
| 2026-05-05 11:13 | -8.98872 | 115.04899 | 9851 ft | 309 kts | 264° |
| 2026-05-05 11:13 | -8.99048 | 115.02738 | 9619 ft | 307 kts | 264° |
| 2026-05-05 11:13 | -8.99224 | 115.00588 | 9383 ft | 306 kts | 264° |
| 2026-05-05 11:13 | -8.99399 | 114.98447 | 9156 ft | 305 kts | 264° |
| 2026-05-05 11:14 | -8.99575 | 114.96318 | 8900 ft | 303 kts | 264° |
| 2026-05-05 11:14 | -8.99750 | 114.94196 | 8567 ft | 302 kts | 264° |
| 2026-05-05 11:14 | -8.99923 | 114.92087 | 8264 ft | 299 kts | 264° |
| 2026-05-05 11:14 | -9.00094 | 114.89996 | 7950 ft | 298 kts | 264° |
| 2026-05-05 11:15 | -9.00263 | 114.87947 | 7648 ft | 295 kts | 264° |
| 2026-05-05 11:15 | -9.00415 | 114.85881 | 7344 ft | 293 kts | 269° |
| 2026-05-05 11:15 | -9.00054 | 114.83870 | 7059 ft | 291 kts | 292° |
| 2026-05-05 11:15 | -8.98978 | 114.82164 | 6764 ft | 288 kts | 315° |
| 2026-05-05 11:16 | -8.97364 | 114.81016 | 6469 ft | 284 kts | 338° |
| 2026-05-05 11:16 | -8.95468 | 114.80576 | 6231 ft | 278 kts | 0° |
| 2026-05-05 11:16 | -8.93567 | 114.80869 | 6113 ft | 278 kts | 21° |
| 2026-05-05 11:16 | -8.91849 | 114.81753 | 5992 ft | 278 kts | 31° |
| 2026-05-05 11:17 | -8.90167 | 114.82718 | 5873 ft | 278 kts | 31° |
| 2026-05-05 11:17 | -8.88486 | 114.83680 | 5745 ft | 278 kts | 30° |
| 2026-05-05 11:17 | -8.86809 | 114.84634 | 5623 ft | 273 kts | 30° |
| 2026-05-05 11:17 | -8.85178 | 114.85558 | 5486 ft | 265 kts | 30° |
| 2026-05-05 11:18 | -8.83597 | 114.86453 | 5374 ft | 256 kts | 30° |
| 2026-05-05 11:18 | -8.82068 | 114.87318 | 5235 ft | 247 kts | 30° |
| 2026-05-05 11:18 | -8.80598 | 114.88153 | 5132 ft | 238 kts | 31° |
| 2026-05-05 11:18 | -8.79186 | 114.88957 | 5015 ft | 229 kts | 31° |
| 2026-05-05 11:19 | -8.77827 | 114.89731 | 4885 ft | 220 kts | 31° |
| 2026-05-05 11:19 | -8.76610 | 114.90584 | 4715 ft | 207 kts | 49° |
| 2026-05-05 11:19 | -8.75808 | 114.91744 | 4354 ft | 200 kts | 69° |
| 2026-05-05 11:19 | -8.75473 | 114.93081 | 3974 ft | 195 kts | 88° |
| 2026-05-05 11:20 | -8.75477 | 114.94436 | 3579 ft | 191 kts | 91° |
| 2026-05-05 11:20 | -8.75489 | 114.95717 | 3493 ft | 176 kts | 91° |
| 2026-05-05 11:20 | -8.75497 | 114.96917 | 3359 ft | 164 kts | 91° |
| 2026-05-05 11:20 | -8.75504 | 114.98023 | 3224 ft | 151 kts | 92° |
| 2026-05-05 11:21 | -8.75511 | 114.99094 | 2811 ft | 156 kts | 91° |
| 2026-05-05 11:21 | -8.75499 | 115.00196 | 2423 ft | 157 kts | 89° |
| 2026-05-05 11:21 | -8.75457 | 115.01297 | 2059 ft | 158 kts | 90° |
| 2026-05-05 11:21 | -8.75412 | 115.02373 | 1877 ft | 147 kts | 90° |
| 2026-05-05 11:22 | -8.75369 | 115.03379 | 1776 ft | 142 kts | 90° |
| 2026-05-05 11:22 | -8.75330 | 115.04369 | 1719 ft | 141 kts | 91° |
| 2026-05-05 11:22 | -8.75291 | 115.05358 | 1710 ft | 140 kts | 91° |
| 2026-05-05 11:22 | -8.75252 | 115.06338 | 1708 ft | 140 kts | 89° |
| 2026-05-05 11:23 | -8.75212 | 115.07327 | 1614 ft | 142 kts | 91° |
| 2026-05-05 11:23 | -8.75172 | 115.08310 | 1408 ft | 139 kts | 92° |
| 2026-05-05 11:23 | -8.75134 | 115.09287 | 1239 ft | 138 kts | 90° |
| 2026-05-05 11:23 | -8.75097 | 115.10260 | 1052 ft | 138 kts | 91° |
| 2026-05-05 11:24 | -8.75058 | 115.11230 | 881 ft | 139 kts | 90° |
| 2026-05-05 11:24 | -8.75018 | 115.12204 | 696 ft | 139 kts | 92° |
| 2026-05-05 11:24 | -8.74979 | 115.13177 | 509 ft | 139 kts | 90° |
| 2026-05-05 11:24 | -8.74942 | 115.14133 | 326 ft | 138 kts | 92° |
| 2026-05-05 11:25 | -8.74904 | 115.15099 | 117 ft | 138 kts | 90° |
| 2026-05-05 11:25 | -8.74873 | 115.16049 | 30 ft | 125 kts | 88° |
| 2026-05-05 11:25 | -8.74842 | 115.16759 | 27 ft | 75 kts | 88° |
| 2026-05-05 11:25 | -8.74828 | 115.17106 | 28 ft | 26 kts | 87° |
| 2026-05-05 11:26 | -8.74821 | 115.17267 | 27 ft | 23 kts | 83° |
| 2026-05-05 11:26 | -8.74730 | 115.17314 | 30 ft | 16 kts | 358° |
| 2026-05-05 11:26 | -8.74657 | 115.17255 | 32 ft | 15 kts | 272° |
| 2026-05-05 11:26 | -8.74660 | 115.17170 | 32 ft | 12 kts | 268° |
| 2026-05-05 11:27 | -8.74663 | 115.17078 | 32 ft | 14 kts | 266° |
| 2026-05-05 11:27 | -8.74668 | 115.16971 | 32 ft | 16 kts | 267° |
| 2026-05-05 11:27 | -8.74673 | 115.16858 | 32 ft | 17 kts | 268° |
| 2026-05-05 11:27 | -8.74678 | 115.16740 | 32 ft | 15 kts | 268° |
| 2026-05-05 11:28 | -8.74683 | 115.16635 | 30 ft | 15 kts | 267° |
| 2026-05-05 11:28 | -8.74686 | 115.16562 | 32 ft | 16 kts | 267° |
| 2026-05-05 11:28 | -8.74690 | 115.16462 | 32 ft | 10 kts | 268° |
| 2026-05-05 11:28 | -8.74663 | 115.16409 | 33 ft | 6 kts | 2° |
| 2026-05-05 11:29 | -8.74631 | 115.16409 | 33 ft | 8 kts | 358° |
| 2026-05-05 11:29 | -8.74593 | 115.16407 | 33 ft | 1 kts | 358° |
| 2026-05-05 11:29 | -8.74576 | 115.16406 | 31 ft | 4 kts | 358° |
| 2026-05-05 11:29 | -8.74568 | 115.16406 | 33 ft | 0 kts | 358° |